Potsdam, Minnesota
Current Conditions -  °F | °C
As of 9:33 AM on Friday 24 Oct 2014 (Local Time) from K9MN Reporting Station
Scattered Clouds Scattered Clouds  
Wind Chill: 52°   Ceiling: Unl
Heat Index: 52°   Visibility: 10mi
Dew Point: 51°   Wind: 12mph
Humidity: 97%   Direction: 130°SE
Pressure: 29.93"   Gusts: NA
Location:  44.1501°N, 92.2609°W
Report Text: K9MN 241433Z AUTO 13010KT 10SM SCT042 SCT075 11/11 A2993 RMK AO1 T01100106
Loading
Personal Weather Stations






























Interactive Weather Map
Tropical Storm Tracking
New forecast layout! Learn more

10-Day Weather Forecast

Advertisements
Track Severe Weather on mobile